Time;durP1;ratioP1;P1;durP2;ratioP2;P2;SDS_P1;SDS_P2;PMS_P1;PMS_P2;Temp;Humidity;BMP_temperature;BMP_pressure;BME280_temperature;BME280_humidity;BME280_pressure;Samples;Min_cycle;Max_cycle;Signal;HPM_P1;HPM_P2
2023/05/05 00:02:12;;;;;;;13.15;8.02;;;;;;;;;;5024750;28;20062;-76
2023/05/05 00:04:38;;;;;;;13.98;7.68;;;;;;;;;;5025109;28;20058;-76
2023/05/05 00:07:04;;;;;;;16.80;8.07;;;;;;;;;;5025538;28;20054;-77
2023/05/05 00:09:31;;;;;;;14.65;7.57;;;;;;;;;;5017978;28;20163;-77
2023/05/05 00:11:57;;;;;;;13.50;7.85;;;;;;;;;;5025655;28;20054;-77
2023/05/05 00:14:23;;;;;;;13.20;8.57;;;;;;;;;;5025783;28;20422;-76
2023/05/05 00:16:50;;;;;;;12.85;8.45;;;;;;;;;;5025960;28;20061;-77
2023/05/05 00:19:16;;;;;;;12.40;7.78;;;;;;;;;;5023650;28;20452;-77
2023/05/05 00:21:42;;;;;;;12.40;8.07;;;;;;;;;;5025530;28;20062;-77
2023/05/05 00:24:09;;;;;;;14.32;7.97;;;;;;;;;;5022310;28;20172;-77
2023/05/05 00:26:35;;;;;;;12.75;7.80;;;;;;;;;;5025528;28;20053;-77
2023/05/05 00:29:01;;;;;;;13.77;8.18;;;;;;;;;;5023755;28;20150;-76
2023/05/05 00:31:28;;;;;;;13.80;7.72;;;;;;;;;;5026087;28;20489;-76
2023/05/05 00:33:54;;;;;;;15.55;7.78;;;;;;;;;;5024635;28;20170;-76
2023/05/05 00:36:21;;;;;;;18.63;7.93;;;;;;;;;;5034194;28;20050;-76
2023/05/05 00:38:47;;;;;;;15.13;8.23;;;;;;;;;;5020214;28;20575;-76
2023/05/05 00:41:13;;;;;;;12.45;7.50;;;;;;;;;;5022722;28;20065;-77
2023/05/05 00:43:40;;;;;;;17.20;8.30;;;;;;;;;;5025236;28;20056;-76
2023/05/05 00:46:24;;;;;;;14.00;7.63;;;;;;;;;;5022790;28;20084;-77
2023/05/05 00:48:50;;;;;;;12.57;7.80;;;;;;;;;;5022865;28;20060;-76
2023/05/05 00:51:18;;;;;;;11.68;7.45;;;;;;;;;;5006999;28;20053;-77
2023/05/05 00:53:44;;;;;;;12.77;7.45;;;;;;;;;;5038004;28;20057;-77
2023/05/05 00:56:11;;;;;;;12.50;7.38;;;;;;;;;;5025465;28;20046;-77
2023/05/05 00:58:40;;;;;;;16.23;7.43;;;;;;;;;;5021559;28;20451;-76
2023/05/05 01:01:06;;;;;;;16.67;7.65;;;;;;;;;;5022946;28;20488;-76
2023/05/05 01:06:17;;;;;;;13.98;7.70;;;;;;;;;;5483385;22;19925;-77
2023/05/05 01:09:03;;;;;;;11.88;7.72;;;;;;;;;;5043212;28;20045;-77
2023/05/05 01:11:42;;;;;;;13.05;8.05;;;;;;;;;;5034604;28;20059;-77
2023/05/05 01:17:03;;;;;;;14.80;8.43;;;;;;;;;;5579398;22;19987;-77
2023/05/05 01:19:30;;;;;;;14.45;8.40;;;;;;;;;;5023412;28;20256;-77
2023/05/05 01:21:59;;;;;;;13.73;7.80;;;;;;;;;;5024019;28;20056;-77
2023/05/05 01:24:42;;;;;;;13.50;8.60;;;;;;;;;;5031526;28;20068;-77
2023/05/05 01:29:57;;;;;;;14.68;8.90;;;;;;;;;;4979206;28;19930;-76
2023/05/05 01:32:28;;;;;;;14.40;8.30;;;;;;;;;;4992831;28;20123;-76
2023/05/05 01:37:40;;;;;;;16.77;9.38;;;;;;;;;;5496168;22;20050;-76
2023/05/05 01:40:09;;;;;;;19.77;9.13;;;;;;;;;;5015862;28;20149;-76
2023/05/05 01:42:36;;;;;;;14.57;9.32;;;;;;;;;;5021774;28;20505;-76
2023/05/05 01:45:06;;;;;;;15.85;9.40;;;;;;;;;;5038796;28;20182;-76
2023/05/05 01:47:32;;;;;;;15.95;9.68;;;;;;;;;;5028843;28;20060;-76
2023/05/05 01:50:00;;;;;;;16.02;9.82;;;;;;;;;;5039267;28;20463;-76
2023/05/05 01:52:28;;;;;;;15.88;10.18;;;;;;;;;;5039408;28;20057;-78
2023/05/05 01:54:56;;;;;;;17.27;11.48;;;;;;;;;;5034350;28;20055;-76
2023/05/05 01:57:23;;;;;;;18.98;10.90;;;;;;;;;;5041864;28;20191;-76
2023/05/05 01:59:50;;;;;;;15.45;9.68;;;;;;;;;;5042487;28;20057;-76
2023/05/05 02:02:19;;;;;;;15.77;10.23;;;;;;;;;;5043828;28;20538;-76
2023/05/05 02:04:46;;;;;;;16.92;10.60;;;;;;;;;;5042877;28;20598;-76
2023/05/05 02:07:13;;;;;;;19.65;10.55;;;;;;;;;;5043217;28;20133;-76
2023/05/05 02:09:40;;;;;;;17.88;9.80;;;;;;;;;;5042660;28;20046;-76
2023/05/05 02:12:07;;;;;;;16.60;9.45;;;;;;;;;;5044313;28;20138;-76
2023/05/05 02:14:33;;;;;;;14.25;9.07;;;;;;;;;;5041642;28;20049;-76
2023/05/05 02:17:00;;;;;;;17.85;9.85;;;;;;;;;;5028430;28;20144;-76
2023/05/05 02:19:35;;;;;;;15.13;9.32;;;;;;;;;;5042826;28;20058;-76
2023/05/05 02:22:01;;;;;;;15.68;9.40;;;;;;;;;;5043868;28;20123;-76
2023/05/05 02:24:28;;;;;;;14.50;8.93;;;;;;;;;;5042642;28;20854;-76
2023/05/05 02:26:55;;;;;;;20.27;9.57;;;;;;;;;;5024732;28;20527;-76
2023/05/05 02:29:24;;;;;;;17.17;8.82;;;;;;;;;;5038925;28;20494;-76
2023/05/05 02:31:54;;;;;;;17.17;8.63;;;;;;;;;;5044611;28;20072;-76
2023/05/05 02:34:22;;;;;;;16.67;9.07;;;;;;;;;;5044366;28;20060;-76
2023/05/05 02:36:51;;;;;;;13.25;8.90;;;;;;;;;;5038210;28;20128;-76
2023/05/05 02:39:20;;;;;;;16.15;8.95;;;;;;;;;;5037892;28;20058;-76
2023/05/05 02:41:47;;;;;;;14.00;9.13;;;;;;;;;;5044463;28;20050;-76
2023/05/05 02:44:14;;;;;;;14.02;9.00;;;;;;;;;;5044219;28;20182;-76
2023/05/05 02:46:41;;;;;;;12.00;8.63;;;;;;;;;;5041720;28;20512;-76
2023/05/05 02:49:08;;;;;;;14.02;8.70;;;;;;;;;;5041128;28;20053;-76
2023/05/05 02:51:34;;;;;;;13.73;7.55;;;;;;;;;;5043852;28;20060;-76
2023/05/05 02:54:01;;;;;;;14.30;8.00;;;;;;;;;;5043009;28;20053;-76
2023/05/05 02:56:31;;;;;;;12.13;7.82;;;;;;;;;;5041768;28;20544;-75
2023/05/05 02:59:18;;;;;;;11.85;7.70;;;;;;;;;;5041153;28;20064;-76
2023/05/05 03:01:49;;;;;;;13.30;8.00;;;;;;;;;;5021783;28;20057;-76
2023/05/05 03:10:05;;;;;;;12.90;8.77;;;;;;;;;;5100166;22;20092;-76
2023/05/05 03:12:40;;;;;;;15.88;8.88;;;;;;;;;;5029809;28;20053;-76
2023/05/05 03:15:07;;;;;;;13.20;8.30;;;;;;;;;;5039915;28;20168;-76
2023/05/05 03:17:34;;;;;;;12.63;7.70;;;;;;;;;;5032577;28;20150;-76
2023/05/05 03:20:02;;;;;;;10.82;7.13;;;;;;;;;;5028768;28;20081;-76
2023/05/05 03:22:29;;;;;;;11.57;7.72;;;;;;;;;;5042578;28;20135;-76
2023/05/05 03:24:55;;;;;;;11.15;6.63;;;;;;;;;;5030997;28;20310;-76
2023/05/05 03:27:22;;;;;;;12.50;6.63;;;;;;;;;;5045525;28;20520;-76
2023/05/05 03:29:48;;;;;;;10.10;6.20;;;;;;;;;;5041474;28;20054;-76
2023/05/05 03:32:15;;;;;;;10.60;6.70;;;;;;;;;;5042699;28;20052;-76
2023/05/05 03:34:41;;;;;;;12.27;6.53;;;;;;;;;;5024658;28;20577;-76
2023/05/05 03:37:07;;;;;;;9.43;6.55;;;;;;;;;;5038236;28;20527;-76
2023/05/05 03:39:34;;;;;;;12.50;6.95;;;;;;;;;;5037142;28;20503;-76
2023/05/05 03:42:00;;;;;;;12.32;7.10;;;;;;;;;;5028986;28;20060;-76
2023/05/05 03:44:27;;;;;;;10.95;7.00;;;;;;;;;;5063009;28;20141;-76
2023/05/05 03:46:53;;;;;;;11.15;7.13;;;;;;;;;;5050227;28;20496;-76
2023/05/05 03:49:19;;;;;;;12.02;7.18;;;;;;;;;;5041223;28;20068;-76
2023/05/05 03:51:46;;;;;;;17.58;6.93;;;;;;;;;;5041507;28;20140;-76
2023/05/05 03:54:12;;;;;;;13.07;7.00;;;;;;;;;;5042572;28;20065;-76
2023/05/05 03:56:39;;;;;;;13.02;7.07;;;;;;;;;;5040508;28;20050;-76
2023/05/05 03:59:05;;;;;;;10.02;6.30;;;;;;;;;;5049958;28;20057;-76
2023/05/05 04:01:32;;;;;;;9.98;5.57;;;;;;;;;;5022820;28;20468;-76
2023/05/05 04:03:58;;;;;;;10.25;6.07;;;;;;;;;;5041945;28;20539;-76
2023/05/05 04:06:25;;;;;;;10.55;6.35;;;;;;;;;;5040850;28;20787;-76
2023/05/05 04:08:51;;;;;;;12.27;6.18;;;;;;;;;;5040729;28;20545;-77
2023/05/05 04:11:17;;;;;;;9.27;5.85;;;;;;;;;;5033128;28;20677;-76
2023/05/05 04:13:44;;;;;;;10.18;5.43;;;;;;;;;;5021406;28;20106;-76
2023/05/05 04:16:11;;;;;;;9.93;5.43;;;;;;;;;;5032773;28;20049;-76
2023/05/05 04:18:38;;;;;;;12.02;5.72;;;;;;;;;;5032371;28;20062;-76
2023/05/05 04:21:04;;;;;;;10.27;5.88;;;;;;;;;;5036021;28;20594;-77
2023/05/05 04:23:30;;;;;;;10.98;5.57;;;;;;;;;;5039892;28;20245;-76
2023/05/05 04:25:57;;;;;;;10.43;5.75;;;;;;;;;;5041725;28;20108;-76
2023/05/05 04:28:23;;;;;;;10.57;5.68;;;;;;;;;;5042088;28;20057;-77
2023/05/05 04:30:49;;;;;;;9.02;5.45;;;;;;;;;;5039435;28;20373;-76
2023/05/05 04:33:16;;;;;;;9.07;5.30;;;;;;;;;;5039661;28;20068;-76
2023/05/05 04:35:42;;;;;;;10.05;5.60;;;;;;;;;;5044937;28;20127;-76
2023/05/05 04:38:08;;;;;;;13.20;5.88;;;;;;;;;;5044374;28;20423;-76
2023/05/05 04:40:39;;;;;;;11.13;6.53;;;;;;;;;;5038793;28;20139;-76
2023/05/05 04:43:06;;;;;;;;;;;;;;;;;;5043243;28;20145;-76
2023/05/05 04:45:32;;;;;;;15.13;6.05;;;;;;;;;;5044841;28;42882;-76
2023/05/05 04:47:59;;;;;;;13.02;6.43;;;;;;;;;;5042626;28;20064;-76
2023/05/05 04:50:25;;;;;;;10.88;6.47;;;;;;;;;;5043794;28;20140;-76
2023/05/05 04:52:52;;;;;;;15.60;6.40;;;;;;;;;;5043089;28;20530;-76
2023/05/05 04:55:18;;;;;;;15.77;6.38;;;;;;;;;;5045072;28;20054;-76
2023/05/05 04:57:44;;;;;;;13.48;6.30;;;;;;;;;;5042627;28;20053;-76
2023/05/05 05:00:11;;;;;;;14.85;7.05;;;;;;;;;;5040909;28;20133;-76
2023/05/05 05:02:37;;;;;;;12.18;6.18;;;;;;;;;;5044719;28;20746;-76
2023/05/05 05:05:04;;;;;;;10.38;6.25;;;;;;;;;;5025798;28;20567;-76
2023/05/05 05:07:31;;;;;;;11.82;6.25;;;;;;;;;;5044510;28;20057;-76
2023/05/05 05:09:57;;;;;;;13.40;6.05;;;;;;;;;;5022671;28;20103;-76
2023/05/05 05:12:23;;;;;;;19.23;6.55;;;;;;;;;;5045571;28;20053;-76
2023/05/05 05:14:50;;;;;;;14.98;6.80;;;;;;;;;;5044697;28;20064;-77
2023/05/05 05:17:18;;;;;;;12.68;6.78;;;;;;;;;;5042084;28;20597;-76
2023/05/05 05:19:44;;;;;;;11.88;6.57;;;;;;;;;;5038731;28;20060;-76
2023/05/05 05:22:11;;;;;;;17.88;7.10;;;;;;;;;;5044395;28;20550;-76
2023/05/05 05:24:37;;;;;;;15.57;7.10;;;;;;;;;;5056395;28;20067;-76
2023/05/05 05:27:06;;;;;;;16.13;7.00;;;;;;;;;;5051106;28;20057;-77
2023/05/05 05:29:35;;;;;;;14.73;7.35;;;;;;;;;;5045254;28;20756;-76
2023/05/05 05:32:01;;;;;;;16.73;7.97;;;;;;;;;;5044201;28;20061;-76
2023/05/05 05:34:28;;;;;;;14.90;7.50;;;;;;;;;;5042359;28;20500;-76
2023/05/05 05:36:54;;;;;;;18.98;7.38;;;;;;;;;;5041671;28;20598;-75
2023/05/05 05:39:21;;;;;;;15.52;7.57;;;;;;;;;;5043531;28;20056;-75
2023/05/05 05:41:47;;;;;;;14.60;7.13;;;;;;;;;;5040039;28;20053;-76
2023/05/05 05:44:13;;;;;;;16.98;8.00;;;;;;;;;;5048069;28;20057;-76
2023/05/05 05:46:40;;;;;;;14.73;7.68;;;;;;;;;;5042193;28;20490;-76
2023/05/05 05:49:06;;;;;;;16.70;8.23;;;;;;;;;;5040030;28;20586;-77
2023/05/05 05:51:32;;;;;;;12.98;7.53;;;;;;;;;;5052733;28;20128;-75
2023/05/05 05:53:59;;;;;;;16.27;8.35;;;;;;;;;;5026271;28;20058;-75
2023/05/05 05:56:25;;;;;;;14.05;8.77;;;;;;;;;;5018210;28;20065;-76
2023/05/05 05:58:52;;;;;;;16.38;8.68;;;;;;;;;;5040725;28;20061;-75
2023/05/05 06:01:18;;;;;;;17.50;8.85;;;;;;;;;;5037759;28;20824;-75
2023/05/05 06:03:44;;;;;;;16.23;8.95;;;;;;;;;;5034419;28;20484;-75
2023/05/05 06:06:11;;;;;;;15.55;9.10;;;;;;;;;;5038030;28;20143;-75
2023/05/05 06:08:37;;;;;;;19.98;10.02;;;;;;;;;;5038504;28;20061;-76
2023/05/05 06:11:04;;;;;;;16.88;9.13;;;;;;;;;;5326299;22;20053;-75
2023/05/05 06:13:30;;;;;;;18.13;8.75;;;;;;;;;;4997690;28;20083;-75
2023/05/05 06:15:56;;;;;;;22.00;9.55;;;;;;;;;;4981250;28;20058;-76
2023/05/05 06:18:23;;;;;;;17.30;9.65;;;;;;;;;;5000844;28;20141;-75
2023/05/05 06:20:49;;;;;;;17.40;8.77;;;;;;;;;;4997510;28;20065;-76
2023/05/05 06:23:16;;;;;;;17.42;9.18;;;;;;;;;;5002665;28;20152;-75
2023/05/05 06:25:42;;;;;;;16.50;8.48;;;;;;;;;;5002863;28;20082;-75
2023/05/05 06:28:09;;;;;;;14.52;8.35;;;;;;;;;;5001892;28;20054;-75
2023/05/05 06:30:35;;;;;;;15.70;7.93;;;;;;;;;;5001154;28;20494;-75
2023/05/05 06:33:01;;;;;;;17.13;8.95;;;;;;;;;;4997067;28;20058;-75
2023/05/05 06:35:29;;;;;;;15.70;8.82;;;;;;;;;;4984824;28;20050;-75
2023/05/05 06:37:55;;;;;;;15.48;8.85;;;;;;;;;;4999517;28;20707;-76
2023/05/05 06:40:22;;;;;;;18.83;9.32;;;;;;;;;;4997267;28;20058;-76
2023/05/05 06:42:48;;;;;;;16.98;9.82;;;;;;;;;;5000058;28;20117;-76
2023/05/05 06:45:15;;;;;;;19.50;9.23;;;;;;;;;;4997470;28;20552;-76
2023/05/05 06:47:41;;;;;;;17.80;9.48;;;;;;;;;;5001143;28;20050;-76
2023/05/05 06:50:08;;;;;;;16.83;9.77;;;;;;;;;;4979713;28;20081;-76
2023/05/05 06:52:34;;;;;;;17.73;9.40;;;;;;;;;;5000501;28;20054;-75
2023/05/05 06:55:02;;;;;;;14.88;9.27;;;;;;;;;;5000980;28;20057;-75
2023/05/05 06:57:28;;;;;;;15.25;8.77;;;;;;;;;;5000136;28;20054;-75
2023/05/05 06:59:55;;;;;;;16.05;8.50;;;;;;;;;;5003392;28;20465;-75
2023/05/05 07:02:21;;;;;;;13.68;8.52;;;;;;;;;;5000764;28;20141;-75
2023/05/05 07:04:51;;;;;;;15.10;8.50;;;;;;;;;;5001025;28;20361;-75
2023/05/05 07:07:17;;;;;;;15.27;8.93;;;;;;;;;;4985914;28;20148;-75
2023/05/05 07:09:43;;;;;;;15.73;8.82;;;;;;;;;;5003646;28;20129;-75
2023/05/05 07:12:10;;;;;;;13.98;8.05;;;;;;;;;;4999843;28;20144;-76
2023/05/05 07:14:36;;;;;;;17.00;9.13;;;;;;;;;;4998129;28;20061;-75
2023/05/05 07:17:02;;;;;;;18.65;9.25;;;;;;;;;;4977441;28;20177;-75
2023/05/05 07:19:29;;;;;;;15.82;8.80;;;;;;;;;;5001424;28;20057;-76
2023/05/05 07:21:55;;;;;;;15.27;8.60;;;;;;;;;;5000803;28;20089;-75
2023/05/05 07:24:22;;;;;;;12.43;7.35;;;;;;;;;;4999480;28;20563;-75
2023/05/05 07:26:49;;;;;;;16.38;7.35;;;;;;;;;;4996144;28;20062;-75
2023/05/05 07:29:15;;;;;;;13.05;7.97;;;;;;;;;;4989787;28;20054;-75
2023/05/05 07:31:41;;;;;;;16.42;8.55;;;;;;;;;;4999847;28;20481;-75
2023/05/05 07:34:08;;;;;;;16.77;8.15;;;;;;;;;;5001949;28;20050;-75
2023/05/05 07:36:34;;;;;;;12.70;6.68;;;;;;;;;;5000894;28;20058;-75
2023/05/05 07:39:01;;;;;;;11.35;6.65;;;;;;;;;;5000442;28;20097;-75
2023/05/05 07:41:27;;;;;;;12.48;7.00;;;;;;;;;;4996296;28;20502;-75
2023/05/05 07:43:54;;;;;;;11.57;7.18;;;;;;;;;;5000116;28;20164;-75
2023/05/05 07:46:20;;;;;;;13.80;7.65;;;;;;;;;;5000341;28;20932;-75
2023/05/05 07:48:47;;;;;;;12.88;8.23;;;;;;;;;;5000665;28;20517;-75
2023/05/05 07:51:13;;;;;;;17.10;7.30;;;;;;;;;;4999551;28;20066;-75
2023/05/05 07:53:40;;;;;;;12.82;6.60;;;;;;;;;;4999095;28;20185;-75
2023/05/05 07:56:07;;;;;;;11.38;6.30;;;;;;;;;;4994851;28;20778;-75
2023/05/05 07:58:34;;;;;;;12.00;6.28;;;;;;;;;;4997910;28;20051;-75
2023/05/05 08:01:00;;;;;;;12.57;6.15;;;;;;;;;;4997102;28;20089;-76
2023/05/05 08:03:27;;;;;;;10.63;5.95;;;;;;;;;;4985543;28;20149;-75
2023/05/05 08:05:54;;;;;;;12.63;5.80;;;;;;;;;;4999197;28;20093;-75
2023/05/05 08:08:23;;;;;;;11.82;6.47;;;;;;;;;;4984666;28;20983;-75
2023/05/05 08:10:51;;;;;;;11.70;5.70;;;;;;;;;;5005137;28;20054;-75
2023/05/05 08:13:18;;;;;;;10.75;5.97;;;;;;;;;;5001940;28;20054;-75
2023/05/05 08:15:45;;;;;;;13.30;5.15;;;;;;;;;;5003563;28;20137;-75
2023/05/05 08:18:11;;;;;;;11.55;5.63;;;;;;;;;;5003621;28;20058;-75
2023/05/05 08:20:38;;;;;;;11.43;5.90;;;;;;;;;;5005530;28;20496;-76
2023/05/05 08:23:04;;;;;;;9.07;5.03;;;;;;;;;;5003469;28;20127;-75
2023/05/05 08:25:31;;;;;;;8.82;4.55;;;;;;;;;;4989389;28;20136;-75
2023/05/05 08:27:57;;;;;;;8.82;5.00;;;;;;;;;;5005207;28;20063;-75
2023/05/05 08:30:24;;;;;;;8.48;4.38;;;;;;;;;;5004896;28;20493;-76
2023/05/05 08:32:50;;;;;;;8.63;4.60;;;;;;;;;;5004753;28;20834;-76
2023/05/05 08:35:16;;;;;;;7.40;4.55;;;;;;;;;;5006277;28;20065;-75
2023/05/05 08:37:43;;;;;;;7.22;3.70;;;;;;;;;;4994696;28;20059;-75
2023/05/05 08:40:13;;;;;;;9.35;3.83;;;;;;;;;;5005346;28;20517;-76
2023/05/05 08:42:40;;;;;;;9.70;4.30;;;;;;;;;;5000056;28;20106;-76
2023/05/05 08:45:07;;;;;;;9.43;4.07;;;;;;;;;;5003938;28;20509;-76
2023/05/05 08:47:35;;;;;;;7.95;3.97;;;;;;;;;;5005466;28;20054;-76
2023/05/05 08:50:04;;;;;;;6.43;3.38;;;;;;;;;;5003353;28;20054;-75
2023/05/05 08:52:36;;;;;;;7.88;3.67;;;;;;;;;;4986901;28;20057;-75
2023/05/05 08:55:11;;;;;;;6.65;3.00;;;;;;;;;;5003982;28;20059;-75
2023/05/05 08:57:51;;;;;;;10.02;2.80;;;;;;;;;;5003940;28;20059;-75
2023/05/05 09:00:18;;;;;;;9.95;3.60;;;;;;;;;;4986022;28;20062;-75
2023/05/05 09:02:45;;;;;;;7.65;3.50;;;;;;;;;;5004968;28;20058;-77
2023/05/05 09:05:11;;;;;;;6.78;4.00;;;;;;;;;;5004429;28;20063;-75
2023/05/05 09:07:40;;;;;;;10.65;4.78;;;;;;;;;;5000057;28;20576;-75
2023/05/05 09:10:10;;;;;;;11.25;5.05;;;;;;;;;;5003469;28;20153;-75
2023/05/05 09:12:39;;;;;;;8.55;5.38;;;;;;;;;;5005144;28;20058;-75
2023/05/05 09:15:06;;;;;;;13.05;5.57;;;;;;;;;;4995090;28;20057;-75
2023/05/05 09:17:33;;;;;;;11.43;5.07;;;;;;;;;;4986598;28;20051;-75
2023/05/05 09:20:06;;;;;;;11.07;5.00;;;;;;;;;;4992774;28;20779;-75
2023/05/05 09:22:32;;;;;;;8.95;5.10;;;;;;;;;;5004870;28;20063;-75
2023/05/05 09:24:59;;;;;;;10.00;5.53;;;;;;;;;;5005593;28;20150;-75
2023/05/05 09:27:25;;;;;;;10.05;5.18;;;;;;;;;;5000623;28;20058;-75
2023/05/05 09:29:53;;;;;;;7.80;4.30;;;;;;;;;;5002027;28;20851;-75
2023/05/05 09:32:19;;;;;;;7.78;4.25;;;;;;;;;;5003467;28;20426;-75
2023/05/05 09:34:59;;;;;;;8.90;4.20;;;;;;;;;;4999724;28;20167;-75
2023/05/05 09:40:08;;;;;;;6.22;2.47;;;;;;;;;;5156277;22;20717;-76
2023/05/05 09:42:36;;;;;;;8.10;2.50;;;;;;;;;;5019959;28;20060;-76
2023/05/05 09:45:03;;;;;;;6.20;2.45;;;;;;;;;;5018702;28;20055;-78
2023/05/05 09:47:36;;;;;;;10.63;4.68;;;;;;;;;;5019111;28;20054;-75
2023/05/05 09:50:03;;;;;;;10.85;4.57;;;;;;;;;;5010976;28;20057;-75
2023/05/05 09:52:29;;;;;;;10.23;6.40;;;;;;;;;;5020783;28;20427;-76
2023/05/05 09:54:56;;;;;;;9.57;5.57;;;;;;;;;;5012841;28;20636;-76
2023/05/05 09:57:30;;;;;;;9.82;6.20;;;;;;;;;;5006734;28;20148;-76
2023/05/05 09:59:57;;;;;;;9.95;5.95;;;;;;;;;;5024553;28;20221;-77
2023/05/05 10:02:31;;;;;;;9.32;5.25;;;;;;;;;;5011715;28;20050;-76
2023/05/05 10:05:16;;;;;;;11.50;5.72;;;;;;;;;;5020630;28;20460;-76
2023/05/05 10:07:44;;;;;;;11.20;5.53;;;;;;;;;;5011307;28;20060;-77
2023/05/05 10:10:14;;;;;;;11.55;5.88;;;;;;;;;;5007624;28;20062;-76
2023/05/05 10:12:40;;;;;;;13.00;6.00;;;;;;;;;;5017567;28;20089;-76
2023/05/05 10:15:08;;;;;;;9.85;5.78;;;;;;;;;;5003475;28;20527;-76
2023/05/05 10:17:36;;;;;;;10.07;5.32;;;;;;;;;;5014692;28;20531;-77
2023/05/05 10:20:02;;;;;;;8.10;5.10;;;;;;;;;;5005813;28;20053;-76
2023/05/05 10:22:33;;;;;;;10.27;4.13;;;;;;;;;;5022329;28;20053;-76
2023/05/05 10:25:08;;;;;;;7.70;3.03;;;;;;;;;;5004803;28;20058;-77
2023/05/05 10:27:42;;;;;;;4.40;1.92;;;;;;;;;;5009881;28;20054;-77
2023/05/05 10:30:12;;;;;;;6.32;1.80;;;;;;;;;;5015034;28;20050;-76
2023/05/05 10:32:42;;;;;;;5.78;1.60;;;;;;;;;;5007183;28;20124;-76
2023/05/05 10:35:14;;;;;;;4.47;1.77;;;;;;;;;;5012299;28;20058;-76
2023/05/05 10:37:41;;;;;;;5.25;1.50;;;;;;;;;;4995034;28;20058;-76
2023/05/05 10:40:08;;;;;;;5.00;1.17;;;;;;;;;;5021092;28;20563;-76
2023/05/05 10:42:38;;;;;;;3.47;1.10;;;;;;;;;;5015949;28;20538;-76
2023/05/05 10:45:08;;;;;;;3.75;1.20;;;;;;;;;;5019659;28;20073;-76
2023/05/05 10:47:35;;;;;;;8.02;1.33;;;;;;;;;;5009478;28;20050;-76
2023/05/05 10:50:12;;;;;;;3.85;1.00;;;;;;;;;;5011095;28;20061;-78
2023/05/05 10:52:41;;;;;;;4.88;1.02;;;;;;;;;;5004034;28;20058;-77
2023/05/05 10:55:31;;;;;;;6.70;0.98;;;;;;;;;;5007924;28;20054;-76
2023/05/05 10:57:57;;;;;;;4.65;0.98;;;;;;;;;;5003329;28;20054;-77
2023/05/05 11:00:39;;;;;;;4.38;1.20;;;;;;;;;;5007154;28;20436;-77
2023/05/05 11:03:32;;;;;;;5.45;1.20;;;;;;;;;;5010310;28;20062;-76
2023/05/05 11:06:01;;;;;;;4.20;1.30;;;;;;;;;;5001240;28;20058;-77
2023/05/05 11:08:27;;;;;;;5.57;1.83;;;;;;;;;;5005983;28;20064;-77
2023/05/05 11:10:54;;;;;;;7.88;2.20;;;;;;;;;;4997502;28;20069;-77
2023/05/05 11:13:20;;;;;;;10.10;2.80;;;;;;;;;;5004775;28;20433;-77
2023/05/05 11:15:50;;;;;;;5.43;1.95;;;;;;;;;;5012066;28;20065;-77
2023/05/05 11:18:35;;;;;;;8.30;2.40;;;;;;;;;;5013981;28;20761;-78
2023/05/05 11:21:14;;;;;;;6.00;2.50;;;;;;;;;;4992467;28;20273;-78
2023/05/05 11:23:43;;;;;;;8.32;3.05;;;;;;;;;;5011735;28;20046;-77
2023/05/05 11:26:11;;;;;;;6.72;2.80;;;;;;;;;;5011717;28;20054;-78
2023/05/05 11:28:56;;;;;;;8.48;2.83;;;;;;;;;;5016952;28;20236;-78
2023/05/05 11:31:22;;;;;;;12.57;3.28;;;;;;;;;;5017618;28;20058;-78
2023/05/05 11:33:49;;;;;;;7.72;2.90;;;;;;;;;;5000823;28;20050;-78
2023/05/05 11:36:16;;;;;;;8.38;3.20;;;;;;;;;;4990198;28;20055;-78
2023/05/05 11:39:02;;;;;;;8.45;3.30;;;;;;;;;;5006075;28;20058;-77
2023/05/05 11:41:31;;;;;;;7.95;3.05;;;;;;;;;;5002025;28;20197;-78
2023/05/05 11:44:11;;;;;;;7.40;2.58;;;;;;;;;;5008780;28;20050;-78
2023/05/05 11:47:00;;;;;;;9.25;2.63;;;;;;;;;;5019163;28;20050;-78
2023/05/05 11:49:33;;;;;;;5.72;2.53;;;;;;;;;;5003841;28;20295;-78
2023/05/05 11:52:00;;;;;;;8.25;3.20;;;;;;;;;;5021664;28;20144;-80
2023/05/05 11:54:27;;;;;;;10.23;3.00;;;;;;;;;;5024388;28;20056;-79
2023/05/05 11:56:58;;;;;;;9.80;2.75;;;;;;;;;;5022707;28;20142;-79
2023/05/05 11:59:24;;;;;;;7.57;3.50;;;;;;;;;;5000844;28;20407;-80
2023/05/05 12:01:51;;;;;;;10.43;3.38;;;;;;;;;;5008211;28;20551;-79
2023/05/05 12:04:17;;;;;;;11.55;3.90;;;;;;;;;;5015016;28;20058;-78
2023/05/05 12:06:44;;;;;;;9.32;3.25;;;;;;;;;;5005220;28;20054;-79
2023/05/05 12:09:15;;;;;;;11.35;3.97;;;;;;;;;;4990969;28;20516;-79
2023/05/05 12:11:47;;;;;;;10.23;3.97;;;;;;;;;;5013242;28;20050;-79
2023/05/05 12:14:14;;;;;;;9.68;4.00;;;;;;;;;;5011542;28;20134;-79
2023/05/05 12:16:52;;;;;;;8.88;3.10;;;;;;;;;;5013643;28;20046;-78
2023/05/05 12:19:18;;;;;;;6.90;3.25;;;;;;;;;;5021090;28;20061;-78
2023/05/05 12:21:45;;;;;;;7.47;3.22;;;;;;;;;;5006195;28;20351;-78
2023/05/05 12:24:13;;;;;;;7.25;3.40;;;;;;;;;;5006005;28;20054;-79
2023/05/05 12:26:40;;;;;;;8.57;3.90;;;;;;;;;;4985533;28;20410;-79
2023/05/05 12:29:06;;;;;;;13.93;4.15;;;;;;;;;;5005110;28;20133;-78
2023/05/05 12:31:32;;;;;;;10.45;3.83;;;;;;;;;;5015088;28;20061;-78
2023/05/05 12:33:59;;;;;;;13.13;4.03;;;;;;;;;;5007735;28;20050;-78
2023/05/05 12:36:26;;;;;;;10.88;3.70;;;;;;;;;;5004709;28;20909;-78
2023/05/05 12:38:55;;;;;;;9.65;3.67;;;;;;;;;;5018778;28;20085;-78
2023/05/05 12:41:21;;;;;;;8.23;3.55;;;;;;;;;;5010491;28;20082;-79
2023/05/05 12:43:52;;;;;;;11.80;3.90;;;;;;;;;;4988438;28;20625;-79
2023/05/05 12:46:19;;;;;;;10.57;3.70;;;;;;;;;;5014305;28;20057;-79
2023/05/05 12:48:57;;;;;;;8.18;3.55;;;;;;;;;;5009554;28;20551;-79
2023/05/05 12:51:24;;;;;;;8.35;3.65;;;;;;;;;;5006078;28;20050;-79
2023/05/05 12:54:01;;;;;;;7.45;3.13;;;;;;;;;;5014376;28;20054;-79
2023/05/05 12:56:40;;;;;;;6.75;3.10;;;;;;;;;;5021893;28;20196;-79
2023/05/05 12:59:07;;;;;;;6.32;2.58;;;;;;;;;;5009433;28;20094;-79
2023/05/05 13:01:35;;;;;;;7.20;3.13;;;;;;;;;;5001410;28;20109;-79
2023/05/05 13:04:11;;;;;;;8.18;3.38;;;;;;;;;;5004532;28;20054;-78
2023/05/05 13:06:46;;;;;;;7.18;3.42;;;;;;;;;;5010901;28;20065;-78
2023/05/05 13:09:22;;;;;;;8.00;3.08;;;;;;;;;;5017680;28;20527;-78
2023/05/05 13:11:48;;;;;;;6.90;3.25;;;;;;;;;;5010795;28;20057;-78
2023/05/05 13:14:15;;;;;;;6.03;2.75;;;;;;;;;;5017029;28;20058;-78
2023/05/05 13:16:41;;;;;;;6.65;2.90;;;;;;;;;;5027258;28;20054;-79
2023/05/05 13:19:07;;;;;;;5.90;2.50;;;;;;;;;;5002327;28;20050;-79
2023/05/05 13:21:34;;;;;;;6.60;2.33;;;;;;;;;;5016231;28;20508;-79
2023/05/05 13:24:00;;;;;;;5.70;2.53;;;;;;;;;;5019225;28;20054;-78
2023/05/05 13:26:47;;;;;;;4.97;2.85;;;;;;;;;;5012029;28;20097;-78
2023/05/05 13:29:15;;;;;;;6.93;2.72;;;;;;;;;;5012806;28;20050;-78
2023/05/05 13:31:41;;;;;;;6.68;2.80;;;;;;;;;;4990111;28;20057;-78
2023/05/05 13:34:08;;;;;;;6.85;3.08;;;;;;;;;;5013738;28;20664;-78
2023/05/05 13:36:34;;;;;;;5.97;2.60;;;;;;;;;;5015940;28;20063;-78
2023/05/05 13:39:03;;;;;;;5.38;2.53;;;;;;;;;;5022933;28;20451;-77
2023/05/05 13:41:30;;;;;;;7.80;2.72;;;;;;;;;;5019074;28;20125;-79
2023/05/05 13:43:56;;;;;;;7.93;3.08;;;;;;;;;;5014762;28;20212;-79
2023/05/05 13:46:23;;;;;;;7.20;2.80;;;;;;;;;;5014577;28;20173;-79
2023/05/05 13:48:50;;;;;;;5.75;2.25;;;;;;;;;;5004257;28;20057;-78
2023/05/05 13:51:21;;;;;;;5.68;2.83;;;;;;;;;;5012099;28;20654;-78
2023/05/05 13:53:48;;;;;;;5.15;2.50;;;;;;;;;;5018153;28;20050;-79
2023/05/05 13:56:14;;;;;;;8.13;4.40;;;;;;;;;;5004588;28;20062;-78
2023/05/05 13:58:41;;;;;;;6.65;3.00;;;;;;;;;;5004915;28;20050;-78
2023/05/05 14:01:08;;;;;;;9.50;3.50;;;;;;;;;;5006194;28;20061;-79
2023/05/05 14:03:35;;;;;;;7.18;3.03;;;;;;;;;;5012081;28;20708;-78
2023/05/05 14:06:01;;;;;;;8.10;3.00;;;;;;;;;;5004799;28;20858;-79
2023/05/05 14:08:28;;;;;;;5.78;2.90;;;;;;;;;;5013365;28;20060;-78
2023/05/05 14:10:54;;;;;;;5.72;2.50;;;;;;;;;;5014296;28;20061;-78
2023/05/05 14:13:21;;;;;;;7.75;2.90;;;;;;;;;;5023590;28;20054;-77
2023/05/05 14:15:49;;;;;;;6.03;2.70;;;;;;;;;;5005651;28;20065;-78
2023/05/05 14:18:15;;;;;;;4.93;1.95;;;;;;;;;;5006878;28;20268;-78
2023/05/05 14:20:42;;;;;;;6.90;2.08;;;;;;;;;;5007019;28;20573;-78
2023/05/05 14:23:08;;;;;;;5.13;1.48;;;;;;;;;;5005437;28;20113;-79
2023/05/05 14:25:34;;;;;;;3.53;1.85;;;;;;;;;;5005581;28;20540;-78
2023/05/05 14:28:01;;;;;;;3.58;1.38;;;;;;;;;;5011467;28;20057;-79
2023/05/05 14:30:29;;;;;;;3.83;1.70;;;;;;;;;;5006120;28;20058;-78
2023/05/05 14:32:56;;;;;;;5.22;1.52;;;;;;;;;;5009833;28;20073;-79
2023/05/05 14:35:23;;;;;;;4.68;1.48;;;;;;;;;;5025110;28;20763;-77
2023/05/05 14:37:49;;;;;;;5.07;1.50;;;;;;;;;;5021035;28;20145;-81
2023/05/05 14:40:16;;;;;;;4.38;1.30;;;;;;;;;;5019048;28;20058;-78
2023/05/05 14:42:42;;;;;;;4.38;1.42;;;;;;;;;;5026493;28;20053;-80
2023/05/05 14:45:11;;;;;;;3.55;1.20;;;;;;;;;;5013762;28;20718;-78
2023/05/05 14:47:37;;;;;;;4.03;1.40;;;;;;;;;;5002817;28;20059;-78
2023/05/05 14:50:04;;;;;;;5.05;1.42;;;;;;;;;;5005073;28;20056;-78
2023/05/05 14:52:32;;;;;;;3.75;1.45;;;;;;;;;;5021769;28;20228;-77
2023/05/05 14:54:59;;;;;;;4.55;1.40;;;;;;;;;;5009256;28;20062;-77
2023/05/05 14:57:25;;;;;;;2.78;1.02;;;;;;;;;;5014988;28;20112;-77
2023/05/05 14:59:52;;;;;;;3.53;1.33;;;;;;;;;;4996962;28;20058;-78
2023/05/05 15:02:18;;;;;;;3.70;1.55;;;;;;;;;;5010527;28;20062;-77